sensor_id;sensor_type;location;lat;lon;timestamp;P1;durP1;ratioP1;P2;durP2;ratioP2
24173;SDS011;12324;48.146;11.502;2022-08-01T00:00:04;3.60;;;2.38;;
24173;SDS011;12324;48.146;11.502;2022-08-01T00:02:35;4.97;;;2.28;;
24173;SDS011;12324;48.146;11.502;2022-08-01T00:05:04;3.13;;;2.20;;
24173;SDS011;12324;48.146;11.502;2022-08-01T00:07:32;3.83;;;2.35;;
24173;SDS011;12324;48.146;11.502;2022-08-01T00:10:04;3.67;;;2.55;;
24173;SDS011;12324;48.146;11.502;2022-08-01T00:12:31;5.47;;;2.72;;
24173;SDS011;12324;48.146;11.502;2022-08-01T00:14:58;4.18;;;2.35;;
24173;SDS011;12324;48.146;11.502;2022-08-01T00:17:25;4.50;;;2.67;;
24173;SDS011;12324;48.146;11.502;2022-08-01T00:19:52;6.18;;;2.90;;
24173;SDS011;12324;48.146;11.502;2022-08-01T00:22:20;4.10;;;2.40;;
24173;SDS011;12324;48.146;11.502;2022-08-01T00:24:47;4.03;;;2.42;;
24173;SDS011;12324;48.146;11.502;2022-08-01T00:27:14;4.18;;;2.63;;
24173;SDS011;12324;48.146;11.502;2022-08-01T00:29:41;5.75;;;2.80;;
24173;SDS011;12324;48.146;11.502;2022-08-01T00:32:29;3.72;;;2.70;;
24173;SDS011;12324;48.146;11.502;2022-08-01T00:34:58;3.65;;;2.50;;
24173;SDS011;12324;48.146;11.502;2022-08-01T00:37:25;3.90;;;2.45;;
24173;SDS011;12324;48.146;11.502;2022-08-01T00:39:52;4.22;;;2.72;;
24173;SDS011;12324;48.146;11.502;2022-08-01T00:42:18;5.00;;;2.40;;
24173;SDS011;12324;48.146;11.502;2022-08-01T00:44:45;4.78;;;2.60;;
24173;SDS011;12324;48.146;11.502;2022-08-01T00:47:13;4.43;;;2.72;;
24173;SDS011;12324;48.146;11.502;2022-08-01T00:49:39;4.32;;;2.42;;
24173;SDS011;12324;48.146;11.502;2022-08-01T00:52:06;4.35;;;2.60;;
24173;SDS011;12324;48.146;11.502;2022-08-01T00:54:35;4.63;;;2.83;;
24173;SDS011;12324;48.146;11.502;2022-08-01T00:57:02;5.55;;;2.88;;
24173;SDS011;12324;48.146;11.502;2022-08-01T00:59:29;5.82;;;2.83;;
24173;SDS011;12324;48.146;11.502;2022-08-01T01:01:57;4.30;;;2.67;;
24173;SDS011;12324;48.146;11.502;2022-08-01T01:04:24;3.10;;;2.30;;
24173;SDS011;12324;48.146;11.502;2022-08-01T01:14:47;5.00;;;3.08;;
24173;SDS011;12324;48.146;11.502;2022-08-01T01:17:57;5.65;;;2.50;;
24173;SDS011;12324;48.146;11.502;2022-08-01T01:20:33;6.07;;;2.80;;
24173;SDS011;12324;48.146;11.502;2022-08-01T01:31:01;5.10;;;2.70;;
24173;SDS011;12324;48.146;11.502;2022-08-01T01:33:30;3.47;;;2.38;;
24173;SDS011;12324;48.146;11.502;2022-08-01T01:36:01;4.63;;;2.78;;
24173;SDS011;12324;48.146;11.502;2022-08-01T01:38:39;5.03;;;2.80;;
24173;SDS011;12324;48.146;11.502;2022-08-01T01:41:09;7.10;;;2.75;;
24173;SDS011;12324;48.146;11.502;2022-08-01T01:43:39;5.15;;;2.78;;
24173;SDS011;12324;48.146;11.502;2022-08-01T01:46:06;4.00;;;2.60;;
24173;SDS011;12324;48.146;11.502;2022-08-01T01:48:35;4.78;;;2.67;;
24173;SDS011;12324;48.146;11.502;2022-08-01T01:51:03;5.50;;;2.78;;
24173;SDS011;12324;48.146;11.502;2022-08-01T01:53:32;2.85;;;2.20;;
24173;SDS011;12324;48.146;11.502;2022-08-01T01:56:01;5.85;;;2.88;;
24173;SDS011;12324;48.146;11.502;2022-08-01T01:58:28;3.08;;;2.30;;
24173;SDS011;12324;48.146;11.502;2022-08-01T02:00:59;7.07;;;3.40;;
24173;SDS011;12324;48.146;11.502;2022-08-01T02:03:29;5.88;;;2.53;;
24173;SDS011;12324;48.146;11.502;2022-08-01T02:05:57;3.85;;;2.30;;
24173;SDS011;12324;48.146;11.502;2022-08-01T02:08:26;4.70;;;2.63;;
24173;SDS011;12324;48.146;11.502;2022-08-01T02:10:57;5.65;;;3.38;;
24173;SDS011;12324;48.146;11.502;2022-08-01T02:13:52;6.63;;;2.88;;
24173;SDS011;12324;48.146;11.502;2022-08-01T02:16:22;5.72;;;2.97;;
24173;SDS011;12324;48.146;11.502;2022-08-01T02:18:52;6.50;;;2.75;;
24173;SDS011;12324;48.146;11.502;2022-08-01T02:21:30;4.10;;;2.42;;
24173;SDS011;12324;48.146;11.502;2022-08-01T02:24:07;3.30;;;2.53;;
24173;SDS011;12324;48.146;11.502;2022-08-01T02:26:41;5.00;;;2.80;;
24173;SDS011;12324;48.146;11.502;2022-08-01T02:29:10;5.47;;;2.85;;
24173;SDS011;12324;48.146;11.502;2022-08-01T02:31:42;4.85;;;2.72;;
24173;SDS011;12324;48.146;11.502;2022-08-01T02:34:13;4.82;;;2.53;;
24173;SDS011;12324;48.146;11.502;2022-08-01T02:36:43;5.00;;;3.03;;
24173;SDS011;12324;48.146;11.502;2022-08-01T02:39:13;5.45;;;2.53;;
24173;SDS011;12324;48.146;11.502;2022-08-01T02:41:43;4.10;;;2.60;;
24173;SDS011;12324;48.146;11.502;2022-08-01T02:44:21;3.80;;;2.58;;
24173;SDS011;12324;48.146;11.502;2022-08-01T02:46:52;3.15;;;2.33;;
24173;SDS011;12324;48.146;11.502;2022-08-01T02:49:23;7.40;;;2.75;;
24173;SDS011;12324;48.146;11.502;2022-08-01T02:51:52;5.22;;;2.38;;
24173;SDS011;12324;48.146;11.502;2022-08-01T02:54:20;4.85;;;2.83;;
24173;SDS011;12324;48.146;11.502;2022-08-01T02:56:48;6.90;;;2.65;;
24173;SDS011;12324;48.146;11.502;2022-08-01T02:59:18;4.25;;;2.65;;
24173;SDS011;12324;48.146;11.502;2022-08-01T03:01:47;5.43;;;2.63;;
24173;SDS011;12324;48.146;11.502;2022-08-01T03:04:16;8.13;;;2.70;;
24173;SDS011;12324;48.146;11.502;2022-08-01T03:06:45;4.60;;;2.65;;
24173;SDS011;12324;48.146;11.502;2022-08-01T03:09:13;6.10;;;2.80;;
24173;SDS011;12324;48.146;11.502;2022-08-01T03:11:42;6.35;;;2.65;;
24173;SDS011;12324;48.146;11.502;2022-08-01T03:14:10;4.43;;;2.88;;
24173;SDS011;12324;48.146;11.502;2022-08-01T03:16:39;3.13;;;2.28;;
24173;SDS011;12324;48.146;11.502;2022-08-01T03:19:08;4.07;;;2.80;;
24173;SDS011;12324;48.146;11.502;2022-08-01T03:21:38;5.57;;;2.88;;
24173;SDS011;12324;48.146;11.502;2022-08-01T03:24:07;4.90;;;2.72;;
24173;SDS011;12324;48.146;11.502;2022-08-01T03:26:36;5.35;;;3.13;;
24173;SDS011;12324;48.146;11.502;2022-08-01T03:29:05;5.65;;;2.70;;
24173;SDS011;12324;48.146;11.502;2022-08-01T03:31:36;4.53;;;2.60;;
24173;SDS011;12324;48.146;11.502;2022-08-01T03:34:04;4.20;;;2.78;;
24173;SDS011;12324;48.146;11.502;2022-08-01T03:36:32;5.65;;;2.83;;
24173;SDS011;12324;48.146;11.502;2022-08-01T03:39:03;5.82;;;3.13;;
24173;SDS011;12324;48.146;11.502;2022-08-01T03:41:36;7.15;;;2.83;;
24173;SDS011;12324;48.146;11.502;2022-08-01T03:44:07;5.18;;;2.72;;
24173;SDS011;12324;48.146;11.502;2022-08-01T03:46:40;4.07;;;2.47;;
24173;SDS011;12324;48.146;11.502;2022-08-01T03:49:11;5.03;;;2.65;;
24173;SDS011;12324;48.146;11.502;2022-08-01T03:51:45;6.88;;;2.88;;
24173;SDS011;12324;48.146;11.502;2022-08-01T03:54:20;7.07;;;2.67;;
24173;SDS011;12324;48.146;11.502;2022-08-01T03:56:49;4.90;;;2.95;;
24173;SDS011;12324;48.146;11.502;2022-08-01T03:59:18;5.05;;;3.03;;
24173;SDS011;12324;48.146;11.502;2022-08-01T04:01:46;5.50;;;3.13;;
24173;SDS011;12324;48.146;11.502;2022-08-01T04:04:15;5.45;;;2.40;;
24173;SDS011;12324;48.146;11.502;2022-08-01T04:06:42;5.55;;;2.75;;
24173;SDS011;12324;48.146;11.502;2022-08-01T04:09:11;4.15;;;2.80;;
24173;SDS011;12324;48.146;11.502;2022-08-01T04:11:39;7.30;;;3.03;;
24173;SDS011;12324;48.146;11.502;2022-08-01T04:14:07;6.18;;;3.00;;
24173;SDS011;12324;48.146;11.502;2022-08-01T04:16:34;6.00;;;3.22;;
24173;SDS011;12324;48.146;11.502;2022-08-01T04:19:01;6.03;;;3.00;;
24173;SDS011;12324;48.146;11.502;2022-08-01T04:21:29;7.10;;;2.83;;
24173;SDS011;12324;48.146;11.502;2022-08-01T04:23:59;3.65;;;2.10;;
24173;SDS011;12324;48.146;11.502;2022-08-01T04:26:32;5.78;;;2.70;;
24173;SDS011;12324;48.146;11.502;2022-08-01T04:29:01;4.00;;;2.85;;
24173;SDS011;12324;48.146;11.502;2022-08-01T04:31:31;3.92;;;2.53;;
24173;SDS011;12324;48.146;11.502;2022-08-01T04:33:58;5.10;;;2.80;;
24173;SDS011;12324;48.146;11.502;2022-08-01T04:36:27;5.63;;;2.65;;
24173;SDS011;12324;48.146;11.502;2022-08-01T04:38:57;5.50;;;2.78;;
24173;SDS011;12324;48.146;11.502;2022-08-01T04:41:29;6.32;;;3.30;;
24173;SDS011;12324;48.146;11.502;2022-08-01T04:43:57;5.38;;;2.78;;
24173;SDS011;12324;48.146;11.502;2022-08-01T04:46:25;4.85;;;2.60;;
24173;SDS011;12324;48.146;11.502;2022-08-01T04:48:54;4.15;;;2.72;;
24173;SDS011;12324;48.146;11.502;2022-08-01T04:51:22;4.72;;;2.67;;
24173;SDS011;12324;48.146;11.502;2022-08-01T04:53:49;3.25;;;2.50;;
24173;SDS011;12324;48.146;11.502;2022-08-01T04:56:17;6.57;;;3.10;;
24173;SDS011;12324;48.146;11.502;2022-08-01T04:58:46;4.90;;;2.58;;
24173;SDS011;12324;48.146;11.502;2022-08-01T05:01:13;4.47;;;2.70;;
24173;SDS011;12324;48.146;11.502;2022-08-01T05:03:40;5.10;;;2.55;;
24173;SDS011;12324;48.146;11.502;2022-08-01T05:06:07;6.57;;;2.83;;
24173;SDS011;12324;48.146;11.502;2022-08-01T05:08:34;5.43;;;2.75;;
24173;SDS011;12324;48.146;11.502;2022-08-01T05:11:02;6.47;;;2.53;;
24173;SDS011;12324;48.146;11.502;2022-08-01T05:13:29;4.97;;;2.88;;
24173;SDS011;12324;48.146;11.502;2022-08-01T05:15:55;4.93;;;2.60;;
24173;SDS011;12324;48.146;11.502;2022-08-01T05:18:22;6.40;;;2.72;;
24173;SDS011;12324;48.146;11.502;2022-08-01T05:20:53;5.80;;;2.60;;
24173;SDS011;12324;48.146;11.502;2022-08-01T05:23:20;4.80;;;2.85;;
24173;SDS011;12324;48.146;11.502;2022-08-01T05:26:07;4.43;;;2.45;;
24173;SDS011;12324;48.146;11.502;2022-08-01T05:28:34;5.07;;;2.67;;
24173;SDS011;12324;48.146;11.502;2022-08-01T05:31:02;4.47;;;2.25;;
24173;SDS011;12324;48.146;11.502;2022-08-01T05:33:29;4.50;;;2.50;;
24173;SDS011;12324;48.146;11.502;2022-08-01T05:35:56;3.03;;;2.22;;
24173;SDS011;12324;48.146;11.502;2022-08-01T05:38:23;5.05;;;2.40;;
24173;SDS011;12324;48.146;11.502;2022-08-01T05:40:49;7.03;;;2.63;;
24173;SDS011;12324;48.146;11.502;2022-08-01T05:43:16;7.00;;;2.78;;
24173;SDS011;12324;48.146;11.502;2022-08-01T05:45:43;6.05;;;3.08;;
24173;SDS011;12324;48.146;11.502;2022-08-01T05:48:11;6.25;;;2.85;;
24173;SDS011;12324;48.146;11.502;2022-08-01T05:50:38;5.25;;;2.78;;
24173;SDS011;12324;48.146;11.502;2022-08-01T05:53:05;4.65;;;2.22;;
24173;SDS011;12324;48.146;11.502;2022-08-01T05:55:32;5.80;;;3.13;;
24173;SDS011;12324;48.146;11.502;2022-08-01T05:57:58;7.43;;;3.08;;
24173;SDS011;12324;48.146;11.502;2022-08-01T06:00:25;3.75;;;2.20;;
24173;SDS011;12324;48.146;11.502;2022-08-01T06:02:52;5.70;;;2.75;;
24173;SDS011;12324;48.146;11.502;2022-08-01T06:05:18;5.30;;;2.45;;
24173;SDS011;12324;48.146;11.502;2022-08-01T06:07:45;4.32;;;2.60;;
24173;SDS011;12324;48.146;11.502;2022-08-01T06:10:12;4.28;;;2.58;;
24173;SDS011;12324;48.146;11.502;2022-08-01T06:12:39;5.50;;;2.40;;
24173;SDS011;12324;48.146;11.502;2022-08-01T06:15:06;6.30;;;3.00;;
24173;SDS011;12324;48.146;11.502;2022-08-01T06:17:33;6.13;;;2.70;;
24173;SDS011;12324;48.146;11.502;2022-08-01T06:20:00;5.53;;;2.70;;
24173;SDS011;12324;48.146;11.502;2022-08-01T06:22:27;4.95;;;2.55;;
24173;SDS011;12324;48.146;11.502;2022-08-01T06:24:53;6.50;;;2.67;;
24173;SDS011;12324;48.146;11.502;2022-08-01T06:27:20;6.18;;;3.00;;
24173;SDS011;12324;48.146;11.502;2022-08-01T06:29:48;8.23;;;2.88;;
24173;SDS011;12324;48.146;11.502;2022-08-01T06:32:19;7.53;;;2.67;;
24173;SDS011;12324;48.146;11.502;2022-08-01T06:34:53;4.63;;;2.58;;
24173;SDS011;12324;48.146;11.502;2022-08-01T06:37:20;4.07;;;2.70;;
24173;SDS011;12324;48.146;11.502;2022-08-01T06:39:47;5.70;;;2.28;;
24173;SDS011;12324;48.146;11.502;2022-08-01T06:42:15;7.72;;;2.97;;
24173;SDS011;12324;48.146;11.502;2022-08-01T06:44:42;5.00;;;2.90;;
24173;SDS011;12324;48.146;11.502;2022-08-01T06:47:09;5.25;;;2.80;;
24173;SDS011;12324;48.146;11.502;2022-08-01T06:49:35;5.68;;;2.92;;
24173;SDS011;12324;48.146;11.502;2022-08-01T06:52:02;6.03;;;2.63;;
24173;SDS011;12324;48.146;11.502;2022-08-01T06:54:30;6.40;;;2.92;;
24173;SDS011;12324;48.146;11.502;2022-08-01T06:56:57;5.70;;;3.08;;
24173;SDS011;12324;48.146;11.502;2022-08-01T06:59:24;6.85;;;3.42;;
24173;SDS011;12324;48.146;11.502;2022-08-01T07:01:51;4.57;;;2.90;;
24173;SDS011;12324;48.146;11.502;2022-08-01T07:04:18;4.40;;;2.70;;
24173;SDS011;12324;48.146;11.502;2022-08-01T07:06:46;4.40;;;2.58;;
24173;SDS011;12324;48.146;11.502;2022-08-01T07:09:13;5.35;;;2.75;;
24173;SDS011;12324;48.146;11.502;2022-08-01T07:11:40;5.25;;;2.70;;
24173;SDS011;12324;48.146;11.502;2022-08-01T07:14:07;5.40;;;2.95;;
24173;SDS011;12324;48.146;11.502;2022-08-01T07:16:35;5.55;;;2.92;;
24173;SDS011;12324;48.146;11.502;2022-08-01T07:19:02;5.43;;;2.53;;
24173;SDS011;12324;48.146;11.502;2022-08-01T07:21:29;6.55;;;2.95;;
24173;SDS011;12324;48.146;11.502;2022-08-01T07:24:06;4.45;;;2.72;;
24173;SDS011;12324;48.146;11.502;2022-08-01T07:26:40;7.95;;;3.28;;
24173;SDS011;12324;48.146;11.502;2022-08-01T07:29:19;7.85;;;3.78;;
24173;SDS011;12324;48.146;11.502;2022-08-01T07:31:46;9.57;;;3.17;;
24173;SDS011;12324;48.146;11.502;2022-08-01T07:34:13;6.35;;;3.33;;
24173;SDS011;12324;48.146;11.502;2022-08-01T07:36:40;5.95;;;3.33;;
24173;SDS011;12324;48.146;11.502;2022-08-01T07:39:07;8.48;;;3.30;;
24173;SDS011;12324;48.146;11.502;2022-08-01T07:41:34;5.80;;;3.03;;
24173;SDS011;12324;48.146;11.502;2022-08-01T07:44:21;8.07;;;3.10;;
24173;SDS011;12324;48.146;11.502;2022-08-01T07:46:53;5.63;;;3.10;;
24173;SDS011;12324;48.146;11.502;2022-08-01T07:49:20;5.60;;;2.83;;
24173;SDS011;12324;48.146;11.502;2022-08-01T07:51:48;7.18;;;3.25;;
24173;SDS011;12324;48.146;11.502;2022-08-01T07:54:29;4.35;;;2.67;;
24173;SDS011;12324;48.146;11.502;2022-08-01T07:56:59;7.75;;;3.13;;
24173;SDS011;12324;48.146;11.502;2022-08-01T07:59:26;5.15;;;3.08;;
24173;SDS011;12324;48.146;11.502;2022-08-01T08:01:53;6.32;;;3.20;;
24173;SDS011;12324;48.146;11.502;2022-08-01T08:04:21;6.13;;;3.47;;
24173;SDS011;12324;48.146;11.502;2022-08-01T08:06:48;5.10;;;2.85;;
24173;SDS011;12324;48.146;11.502;2022-08-01T08:09:15;5.50;;;2.70;;
24173;SDS011;12324;48.146;11.502;2022-08-01T08:11:45;5.45;;;3.25;;
24173;SDS011;12324;48.146;11.502;2022-08-01T08:14:14;6.25;;;2.90;;
24173;SDS011;12324;48.146;11.502;2022-08-01T08:16:41;4.75;;;2.67;;
24173;SDS011;12324;48.146;11.502;2022-08-01T08:19:09;4.60;;;2.78;;
24173;SDS011;12324;48.146;11.502;2022-08-01T08:21:36;4.95;;;3.00;;
24173;SDS011;12324;48.146;11.502;2022-08-01T08:24:04;6.00;;;3.17;;
24173;SDS011;12324;48.146;11.502;2022-08-01T08:26:53;4.85;;;3.00;;
24173;SDS011;12324;48.146;11.502;2022-08-01T08:29:21;6.85;;;3.17;;
24173;SDS011;12324;48.146;11.502;2022-08-01T08:31:48;4.53;;;2.60;;
24173;SDS011;12324;48.146;11.502;2022-08-01T08:34:18;8.48;;;3.42;;
24173;SDS011;12324;48.146;11.502;2022-08-01T08:36:46;5.60;;;2.85;;
24173;SDS011;12324;48.146;11.502;2022-08-01T08:39:15;6.70;;;3.13;;
24173;SDS011;12324;48.146;11.502;2022-08-01T08:41:45;7.70;;;3.50;;
24173;SDS011;12324;48.146;11.502;2022-08-01T08:44:14;4.20;;;2.65;;
24173;SDS011;12324;48.146;11.502;2022-08-01T08:46:43;5.18;;;2.78;;
24173;SDS011;12324;48.146;11.502;2022-08-01T08:49:11;4.22;;;2.75;;
24173;SDS011;12324;48.146;11.502;2022-08-01T08:51:39;6.05;;;3.22;;
24173;SDS011;12324;48.146;11.502;2022-08-01T08:54:08;4.45;;;2.88;;
24173;SDS011;12324;48.146;11.502;2022-08-01T08:56:37;5.93;;;2.92;;
24173;SDS011;12324;48.146;11.502;2022-08-01T08:59:04;6.38;;;3.20;;
24173;SDS011;12324;48.146;11.502;2022-08-01T09:01:32;6.28;;;3.17;;
24173;SDS011;12324;48.146;11.502;2022-08-01T09:04:01;6.22;;;2.90;;
24173;SDS011;12324;48.146;11.502;2022-08-01T09:06:29;4.28;;;2.63;;
24173;SDS011;12324;48.146;11.502;2022-08-01T09:08:56;4.80;;;2.72;;
24173;SDS011;12324;48.146;11.502;2022-08-01T09:11:23;5.35;;;2.95;;
24173;SDS011;12324;48.146;11.502;2022-08-01T09:16:33;7.72;;;3.00;;
24173;SDS011;12324;48.146;11.502;2022-08-01T09:19:35;4.28;;;2.80;;
24173;SDS011;12324;48.146;11.502;2022-08-01T09:22:07;4.55;;;2.47;;
24173;SDS011;12324;48.146;11.502;2022-08-01T09:24:35;3.78;;;2.10;;
24173;SDS011;12324;48.146;11.502;2022-08-01T09:27:16;4.63;;;2.70;;
24173;SDS011;12324;48.146;11.502;2022-08-01T09:29:47;5.25;;;2.90;;
24173;SDS011;12324;48.146;11.502;2022-08-01T09:32:26;4.22;;;2.55;;
24173;SDS011;12324;48.146;11.502;2022-08-01T09:37:30;3.20;;;2.15;;
24173;SDS011;12324;48.146;11.502;2022-08-01T09:40:02;3.60;;;2.10;;
24173;SDS011;12324;48.146;11.502;2022-08-01T09:42:30;3.50;;;2.08;;
24173;SDS011;12324;48.146;11.502;2022-08-01T09:44:57;4.53;;;2.20;;
24173;SDS011;12324;48.146;11.502;2022-08-01T09:47:36;6.00;;;1.90;;
24173;SDS011;12324;48.146;11.502;2022-08-01T09:50:04;4.50;;;2.60;;
24173;SDS011;12324;48.146;11.502;2022-08-01T09:52:36;3.88;;;2.35;;
24173;SDS011;12324;48.146;11.502;2022-08-01T09:55:06;2.78;;;2.25;;
24173;SDS011;12324;48.146;11.502;2022-08-01T09:57:33;4.30;;;2.40;;
24173;SDS011;12324;48.146;11.502;2022-08-01T10:00:01;3.00;;;1.95;;
24173;SDS011;12324;48.146;11.502;2022-08-01T10:02:29;3.28;;;2.00;;
24173;SDS011;12324;48.146;11.502;2022-08-01T10:04:57;4.25;;;2.10;;
24173;SDS011;12324;48.146;11.502;2022-08-01T10:07:33;2.95;;;2.03;;
24173;SDS011;12324;48.146;11.502;2022-08-01T10:10:12;4.53;;;2.45;;
24173;SDS011;12324;48.146;11.502;2022-08-01T10:12:40;5.20;;;2.13;;
24173;SDS011;12324;48.146;11.502;2022-08-01T10:15:11;3.47;;;1.90;;
24173;SDS011;12324;48.146;11.502;2022-08-01T10:17:46;3.85;;;1.80;;
24173;SDS011;12324;48.146;11.502;2022-08-01T10:20:18;2.22;;;1.70;;
24173;SDS011;12324;48.146;11.502;2022-08-01T10:23:00;5.45;;;2.83;;
24173;SDS011;12324;48.146;11.502;2022-08-01T10:25:35;3.50;;;2.15;;
24173;SDS011;12324;48.146;11.502;2022-08-01T10:28:18;2.25;;;1.60;;
24173;SDS011;12324;48.146;11.502;2022-08-01T10:30:49;3.30;;;1.92;;
24173;SDS011;12324;48.146;11.502;2022-08-01T10:33:18;3.70;;;1.90;;
24173;SDS011;12324;48.146;11.502;2022-08-01T10:36:08;4.53;;;2.40;;
24173;SDS011;12324;48.146;11.502;2022-08-01T10:38:35;3.20;;;2.13;;
24173;SDS011;12324;48.146;11.502;2022-08-01T10:41:03;3.17;;;2.10;;
24173;SDS011;12324;48.146;11.502;2022-08-01T10:43:32;1.90;;;1.50;;
24173;SDS011;12324;48.146;11.502;2022-08-01T10:46:01;3.25;;;1.90;;
24173;SDS011;12324;48.146;11.502;2022-08-01T10:48:39;6.18;;;1.98;;
24173;SDS011;12324;48.146;11.502;2022-08-01T10:51:08;4.28;;;1.30;;
24173;SDS011;12324;48.146;11.502;2022-08-01T10:53:47;4.97;;;2.03;;
24173;SDS011;12324;48.146;11.502;2022-08-01T10:56:14;2.47;;;1.75;;
24173;SDS011;12324;48.146;11.502;2022-08-01T10:58:43;2.33;;;1.95;;
24173;SDS011;12324;48.146;11.502;2022-08-01T11:01:18;2.95;;;1.83;;
24173;SDS011;12324;48.146;11.502;2022-08-01T11:04:04;5.85;;;2.33;;
24173;SDS011;12324;48.146;11.502;2022-08-01T11:09:45;4.80;;;2.22;;
24173;SDS011;12324;48.146;11.502;2022-08-01T11:14:23;3.30;;;1.80;;
24173;SDS011;12324;48.146;11.502;2022-08-01T11:20:05;2.90;;;1.60;;
24173;SDS011;12324;48.146;11.502;2022-08-01T11:23:19;3.55;;;1.98;;
24173;SDS011;12324;48.146;11.502;2022-08-01T11:28:24;2.80;;;2.10;;
24173;SDS011;12324;48.146;11.502;2022-08-01T11:38:44;1.67;;;1.50;;
24173;SDS011;12324;48.146;11.502;2022-08-01T11:41:15;2.85;;;1.92;;
24173;SDS011;12324;48.146;11.502;2022-08-01T11:44:06;3.72;;;1.55;;
24173;SDS011;12324;48.146;11.502;2022-08-01T11:52:24;3.83;;;1.85;;
24173;SDS011;12324;48.146;11.502;2022-08-01T11:55:05;3.92;;;1.70;;
24173;SDS011;12324;48.146;11.502;2022-08-01T11:57:35;3.88;;;1.83;;
24173;SDS011;12324;48.146;11.502;2022-08-01T12:00:15;1.52;;;1.33;;
24173;SDS011;12324;48.146;11.502;2022-08-01T12:02:48;2.65;;;1.60;;
24173;SDS011;12324;48.146;11.502;2022-08-01T12:05:30;2.00;;;1.42;;
24173;SDS011;12324;48.146;11.502;2022-08-01T12:08:00;5.82;;;1.90;;
24173;SDS011;12324;48.146;11.502;2022-08-01T12:10:30;4.80;;;1.67;;
24173;SDS011;12324;48.146;11.502;2022-08-01T12:13:15;2.00;;;1.40;;
24173;SDS011;12324;48.146;11.502;2022-08-01T12:15:43;3.10;;;1.75;;
24173;SDS011;12324;48.146;11.502;2022-08-01T12:18:11;3.97;;;2.30;;
24173;SDS011;12324;48.146;11.502;2022-08-01T12:20:39;3.25;;;1.75;;
24173;SDS011;12324;48.146;11.502;2022-08-01T12:23:21;2.70;;;1.77;;
24173;SDS011;12324;48.146;11.502;2022-08-01T12:25:51;2.08;;;1.60;;
24173;SDS011;12324;48.146;11.502;2022-08-01T12:28:19;4.80;;;1.65;;
24173;SDS011;12324;48.146;11.502;2022-08-01T12:30:47;2.60;;;1.52;;
24173;SDS011;12324;48.146;11.502;2022-08-01T12:33:16;1.10;;;1.00;;
24173;SDS011;12324;48.146;11.502;2022-08-01T12:35:44;1.58;;;1.38;;
24173;SDS011;12324;48.146;11.502;2022-08-01T12:38:16;2.40;;;1.52;;
24173;SDS011;12324;48.146;11.502;2022-08-01T12:40:46;1.60;;;1.35;;
24173;SDS011;12324;48.146;11.502;2022-08-01T12:43:19;1.70;;;1.52;;
24173;SDS011;12324;48.146;11.502;2022-08-01T12:45:54;2.55;;;2.05;;
24173;SDS011;12324;48.146;11.502;2022-08-01T12:48:26;2.63;;;1.40;;
24173;SDS011;12324;48.146;11.502;2022-08-01T12:50:53;2.25;;;1.52;;
24173;SDS011;12324;48.146;11.502;2022-08-01T12:53:24;2.80;;;1.40;;
24173;SDS011;12324;48.146;11.502;2022-08-01T12:56:05;1.33;;;1.10;;
24173;SDS011;12324;48.146;11.502;2022-08-01T12:58:32;2.50;;;1.73;;
24173;SDS011;12324;48.146;11.502;2022-08-01T13:01:04;3.47;;;1.77;;
24173;SDS011;12324;48.146;11.502;2022-08-01T13:03:32;2.83;;;1.58;;
24173;SDS011;12324;48.146;11.502;2022-08-01T13:05:59;3.08;;;1.27;;
24173;SDS011;12324;48.146;11.502;2022-08-01T13:08:30;1.65;;;1.40;;
24173;SDS011;12324;48.146;11.502;2022-08-01T13:11:04;1.30;;;1.15;;
24173;SDS011;12324;48.146;11.502;2022-08-01T13:16:14;4.43;;;1.63;;
24173;SDS011;12324;48.146;11.502;2022-08-01T13:19:02;2.15;;;1.35;;
24173;SDS011;12324;48.146;11.502;2022-08-01T13:21:29;2.65;;;1.60;;
24173;SDS011;12324;48.146;11.502;2022-08-01T13:24:22;3.15;;;1.73;;
24173;SDS011;12324;48.146;11.502;2022-08-01T13:27:00;3.00;;;1.80;;
24173;SDS011;12324;48.146;11.502;2022-08-01T13:29:32;2.45;;;1.40;;
24173;SDS011;12324;48.146;11.502;2022-08-01T13:32:21;2.13;;;1.55;;
24173;SDS011;12324;48.146;11.502;2022-08-01T13:35:05;4.20;;;1.70;;
24173;SDS011;12324;48.146;11.502;2022-08-01T13:37:34;3.40;;;1.90;;
24173;SDS011;12324;48.146;11.502;2022-08-01T13:40:04;3.53;;;1.33;;
24173;SDS011;12324;48.146;11.502;2022-08-01T13:42:32;2.28;;;1.30;;
24173;SDS011;12324;48.146;11.502;2022-08-01T13:45:00;1.40;;;1.17;;
24173;SDS011;12324;48.146;11.502;2022-08-01T13:47:28;1.90;;;1.10;;
24173;SDS011;12324;48.146;11.502;2022-08-01T13:49:56;3.28;;;1.30;;
24173;SDS011;12324;48.146;11.502;2022-08-01T13:52:26;2.90;;;1.65;;
24173;SDS011;12324;48.146;11.502;2022-08-01T13:54:57;1.95;;;1.15;;
24173;SDS011;12324;48.146;11.502;2022-08-01T13:57:24;2.92;;;1.40;;
24173;SDS011;12324;48.146;11.502;2022-08-01T14:00:03;1.80;;;1.52;;
24173;SDS011;12324;48.146;11.502;2022-08-01T14:02:33;2.42;;;1.30;;
24173;SDS011;12324;48.146;11.502;2022-08-01T14:05:00;3.53;;;1.42;;
24173;SDS011;12324;48.146;11.502;2022-08-01T14:07:27;3.63;;;1.67;;
24173;SDS011;12324;48.146;11.502;2022-08-01T14:09:56;2.38;;;1.48;;
24173;SDS011;12324;48.146;11.502;2022-08-01T14:12:43;3.97;;;1.50;;
24173;SDS011;12324;48.146;11.502;2022-08-01T14:15:11;2.55;;;1.42;;
24173;SDS011;12324;48.146;11.502;2022-08-01T14:17:38;5.85;;;2.20;;
24173;SDS011;12324;48.146;11.502;2022-08-01T14:20:13;1.88;;;1.52;;
24173;SDS011;12324;48.146;11.502;2022-08-01T14:22:39;3.75;;;1.67;;
24173;SDS011;12324;48.146;11.502;2022-08-01T14:25:06;5.45;;;2.10;;
24173;SDS011;12324;48.146;11.502;2022-08-01T14:27:34;7.10;;;2.30;;
24173;SDS011;12324;48.146;11.502;2022-08-01T14:30:05;5.30;;;2.13;;
24173;SDS011;12324;48.146;11.502;2022-08-01T14:32:32;3.60;;;1.77;;
24173;SDS011;12324;48.146;11.502;2022-08-01T14:35:00;5.68;;;2.05;;
24173;SDS011;12324;48.146;11.502;2022-08-01T14:37:27;3.30;;;1.80;;
24173;SDS011;12324;48.146;11.502;2022-08-01T14:39:59;4.68;;;2.17;;
24173;SDS011;12324;48.146;11.502;2022-08-01T14:42:32;2.47;;;1.67;;
24173;SDS011;12324;48.146;11.502;2022-08-01T14:44:59;2.20;;;1.77;;
24173;SDS011;12324;48.146;11.502;2022-08-01T14:47:26;4.25;;;2.00;;
24173;SDS011;12324;48.146;11.502;2022-08-01T14:49:53;3.47;;;1.90;;
24173;SDS011;12324;48.146;11.502;2022-08-01T14:52:19;3.85;;;1.70;;
24173;SDS011;12324;48.146;11.502;2022-08-01T14:54:47;3.42;;;1.88;;
24173;SDS011;12324;48.146;11.502;2022-08-01T14:57:14;3.63;;;1.58;;
24173;SDS011;12324;48.146;11.502;2022-08-01T14:59:44;2.90;;;1.80;;
24173;SDS011;12324;48.146;11.502;2022-08-01T15:02:10;3.10;;;1.77;;
24173;SDS011;12324;48.146;11.502;2022-08-01T15:04:38;4.65;;;2.08;;
24173;SDS011;12324;48.146;11.502;2022-08-01T15:07:05;7.68;;;2.17;;
24173;SDS011;12324;48.146;11.502;2022-08-01T15:09:32;5.07;;;2.25;;
24173;SDS011;12324;48.146;11.502;2022-08-01T15:11:58;2.90;;;1.70;;
24173;SDS011;12324;48.146;11.502;2022-08-01T15:14:25;4.60;;;2.17;;
24173;SDS011;12324;48.146;11.502;2022-08-01T15:17:10;6.13;;;1.73;;
24173;SDS011;12324;48.146;11.502;2022-08-01T15:19:37;3.97;;;2.25;;
24173;SDS011;12324;48.146;11.502;2022-08-01T15:22:07;4.22;;;1.65;;
24173;SDS011;12324;48.146;11.502;2022-08-01T15:24:34;2.80;;;1.90;;
24173;SDS011;12324;48.146;11.502;2022-08-01T15:27:01;6.70;;;2.30;;
24173;SDS011;12324;48.146;11.502;2022-08-01T15:29:28;3.17;;;2.08;;
24173;SDS011;12324;48.146;11.502;2022-08-01T15:31:55;4.47;;;2.28;;
24173;SDS011;12324;48.146;11.502;2022-08-01T15:34:22;3.00;;;1.85;;
24173;SDS011;12324;48.146;11.502;2022-08-01T15:36:49;3.22;;;1.90;;
24173;SDS011;12324;48.146;11.502;2022-08-01T15:39:15;4.65;;;2.38;;